Talkeetna, Alaska
Current Conditions -  °F | °C
As of 12:53 AM on Friday 31 Oct 2014 (Local Time) from PATK Reporting Station
Clear Clear  
Wind Chill: 11°   Ceiling: Unl
Heat Index: 11°   Visibility: 10mi
Dew Point:   Wind: 0mph
Humidity: 84%   Direction: NA
Pressure: 29.35"   Gusts: NA
Location:  62.31°N, 150.11°W
Report Text: PATK 310853Z AUTO 00000KT 10SM CLR M12/M14 A2935 RMK AO2 SLP945 T11171139 400221122 56005 TSNO
Loading
Personal Weather Stations






























Interactive Weather Map
Tropical Storm Tracking
New forecast layout! Learn more

10-Day Weather Forecast

Advertisements
Track Severe Weather on mobile